createdAt,value
2017-12-02T00:00:42.439Z,101688.94
2017-12-02T00:03:10.039Z,101682.48
2017-12-02T00:05:37.707Z,101687.96
2017-12-02T00:08:05.306Z,101691.28
2017-12-02T00:10:32.953Z,101691.98
2017-12-02T00:13:00.575Z,101689.73
2017-12-02T00:15:28.282Z,101695.96
2017-12-02T00:17:55.993Z,101704.33
2017-12-02T00:20:23.659Z,101705.97
2017-12-02T00:22:51.355Z,101702.92
2017-12-02T00:25:19.022Z,101705.52
2017-12-02T00:27:46.745Z,101708.05
2017-12-02T00:30:14.418Z,101714.23
2017-12-02T00:32:42.096Z,101719.65
2017-12-02T00:35:09.715Z,101719.26
2017-12-02T00:37:37.398Z,101720.80
2017-12-02T00:40:05.162Z,101718.67
2017-12-02T00:42:32.830Z,101724.86
2017-12-02T00:45:00.487Z,101722.90
2017-12-02T00:47:28.181Z,101721.92
2017-12-02T00:49:55.826Z,101722.11
2017-12-02T00:52:23.418Z,101725.78
2017-12-02T00:54:51.170Z,101725.88
2017-12-02T00:57:18.987Z,101732.80
2017-12-02T00:59:46.582Z,101739.70
2017-12-02T01:02:14.311Z,101749.09
2017-12-02T01:04:41.994Z,101750.66
2017-12-02T01:07:09.709Z,101754.11
2017-12-02T01:09:37.402Z,101756.38
2017-12-02T01:12:05.102Z,101757.18
2017-12-02T01:14:32.775Z,101761.81
2017-12-02T01:17:00.491Z,101769.51
2017-12-02T01:19:28.095Z,101773.75
2017-12-02T01:21:55.777Z,101774.98
2017-12-02T01:24:23.454Z,101775.39
2017-12-02T01:26:51.118Z,101779.47
2017-12-02T01:29:18.779Z,101786.31
2017-12-02T01:31:46.479Z,101787.50
2017-12-02T01:34:14.161Z,101789.24
2017-12-02T01:36:41.777Z,101798.96
2017-12-02T01:39:09.470Z,101804.20
2017-12-02T01:41:37.198Z,101807.66
2017-12-02T01:44:04.815Z,101814.88
2017-12-02T01:46:32.522Z,101818.37
2017-12-02T01:49:00.213Z,101816.77
2017-12-02T01:51:27.902Z,101820.55
2017-12-02T01:53:55.562Z,101817.66
2017-12-02T01:56:23.285Z,101821.02
2017-12-02T01:58:50.958Z,101825.59
2017-12-02T02:01:18.638Z,101832.82
2017-12-02T02:03:46.242Z,101837.48
2017-12-02T02:06:13.943Z,101838.02
2017-12-02T02:08:41.537Z,101839.03
2017-12-02T02:11:09.242Z,101839.80
2017-12-02T02:13:36.922Z,101846.52
2017-12-02T02:16:04.638Z,101846.44
2017-12-02T02:18:32.387Z,101843.63
2017-12-02T02:21:00.094Z,101847.70
2017-12-02T02:23:27.792Z,101847.48
2017-12-02T02:25:55.471Z,101841.47
2017-12-02T02:28:23.156Z,101839.91
2017-12-02T02:30:50.882Z,101850.50
2017-12-02T02:33:18.591Z,101849.24
2017-12-02T02:35:46.254Z,101845.11
2017-12-02T02:38:13.974Z,101848.30
2017-12-02T02:40:41.571Z,101849.81
2017-12-02T02:43:09.342Z,101850.90
2017-12-02T02:45:37.010Z,101846.69
2017-12-02T02:48:04.726Z,101839.80
2017-12-02T02:50:32.322Z,101842.97
2017-12-02T02:53:00.051Z,101848.34
2017-12-02T02:55:27.669Z,101853.99
2017-12-02T02:57:55.347Z,101859.47
2017-12-02T03:00:23.015Z,101856.46
2017-12-02T03:02:50.759Z,101863.13
2017-12-02T03:05:18.430Z,101859.81
2017-12-02T03:07:46.053Z,101863.59
2017-12-02T03:10:13.700Z,101859.70
2017-12-02T03:12:41.322Z,101860.72
2017-12-02T03:15:08.926Z,101870.25
2017-12-02T03:17:36.556Z,101867.48
2017-12-02T03:20:04.210Z,101867.19
2017-12-02T03:22:31.922Z,101871.00
2017-12-02T03:24:59.593Z,101875.34
2017-12-02T03:27:27.294Z,101870.58
2017-12-02T03:29:54.966Z,101868.23
2017-12-02T03:32:22.658Z,101873.09
2017-12-02T03:34:50.330Z,101880.83
2017-12-02T03:37:18.038Z,101878.03
2017-12-02T03:39:45.702Z,101878.77
2017-12-02T03:42:13.424Z,101882.92
2017-12-02T03:44:41.103Z,101884.94
2017-12-02T03:47:08.782Z,101883.06
2017-12-02T03:49:36.444Z,101886.86
2017-12-02T03:52:04.124Z,101882.73
2017-12-02T03:54:31.786Z,101883.89
2017-12-02T03:56:59.498Z,101887.05
2017-12-02T03:59:27.231Z,101888.00
2017-12-02T04:01:54.932Z,101895.22
2017-12-02T04:04:22.522Z,101893.57
2017-12-02T04:06:50.247Z,101894.09
2017-12-02T04:09:17.841Z,101900.66
2017-12-02T04:11:45.532Z,101897.97
2017-12-02T04:14:13.118Z,101899.16
2017-12-02T04:16:40.838Z,101898.78
2017-12-02T04:19:08.548Z,101899.16
2017-12-02T04:21:36.262Z,101897.65
2017-12-02T04:24:03.889Z,101902.95
2017-12-02T04:26:31.510Z,101900.18
2017-12-02T04:28:59.162Z,101900.84
2017-12-02T04:31:26.794Z,101901.42
2017-12-02T04:33:54.450Z,101904.39
2017-12-02T04:36:22.151Z,101908.13
2017-12-02T04:38:49.757Z,101911.67
2017-12-02T04:41:17.339Z,101911.19
2017-12-02T04:43:45.034Z,101915.77
2017-12-02T04:46:12.699Z,101915.34
2017-12-02T04:48:40.496Z,101915.88
2017-12-02T04:51:08.074Z,101916.33
2017-12-02T04:53:35.707Z,101915.67
2017-12-02T04:56:03.361Z,101913.40
2017-12-02T04:58:31.077Z,101918.88
2017-12-02T05:00:58.739Z,101924.11
2017-12-02T05:03:26.434Z,101926.69
2017-12-02T05:05:54.111Z,101932.36
2017-12-02T05:08:21.778Z,101928.94
2017-12-02T05:10:49.495Z,101931.31
2017-12-02T05:13:17.190Z,101934.80
2017-12-02T05:15:44.845Z,101931.83
2017-12-02T05:18:12.546Z,101934.20
2017-12-02T05:20:40.138Z,101935.28
2017-12-02T05:23:07.744Z,101930.03
2017-12-02T05:25:35.402Z,101932.50
2017-12-02T05:28:03.103Z,101935.69
2017-12-02T05:30:30.761Z,101929.50
2017-12-02T05:32:58.462Z,101928.66
2017-12-02T05:35:26.110Z,101932.16
2017-12-02T05:37:53.830Z,101934.52
2017-12-02T05:40:21.461Z,101934.09
2017-12-02T05:42:49.107Z,101937.95
2017-12-02T05:45:16.794Z,101942.58
2017-12-02T05:47:44.530Z,101951.34
2017-12-02T05:50:12.265Z,101949.93
2017-12-02T05:52:39.916Z,101948.70
2017-12-02T05:55:07.678Z,101956.59
2017-12-02T05:57:35.391Z,101960.53
2017-12-02T06:00:03.118Z,101962.81
2017-12-02T06:02:30.811Z,101962.33
2017-12-02T06:04:58.628Z,101964.12
2017-12-02T06:07:26.357Z,101964.97
2017-12-02T06:09:54.116Z,101961.87
2017-12-02T06:12:21.831Z,101968.56
2017-12-02T06:14:49.570Z,101977.03
2017-12-02T06:17:17.242Z,101971.06
2017-12-02T06:19:44.955Z,101969.28
2017-12-02T06:22:12.616Z,101978.62
2017-12-02T06:24:40.359Z,101984.26
2017-12-02T06:27:08.058Z,101996.05
2017-12-02T06:29:35.773Z,101998.45
2017-12-02T06:32:03.426Z,101998.61
2017-12-02T06:34:31.151Z,101999.17
2017-12-02T06:36:58.906Z,102002.30
2017-12-02T06:39:26.598Z,102003.37
2017-12-02T06:41:54.258Z,102005.46
2017-12-02T06:44:21.947Z,102012.01
2017-12-02T06:46:49.626Z,102008.64
2017-12-02T06:49:17.318Z,102009.77
2017-12-02T06:51:44.983Z,102016.37
2017-12-02T06:54:12.746Z,102018.70
2017-12-02T06:56:40.410Z,102020.89
2017-12-02T06:59:08.171Z,102026.82
2017-12-02T07:01:35.892Z,102036.76
2017-12-02T07:04:03.653Z,102034.44
2017-12-02T07:06:31.346Z,102038.94
2017-12-02T07:08:59.154Z,102043.63
2017-12-02T07:11:26.850Z,102042.22
2017-12-02T07:13:54.562Z,102039.34
2017-12-02T07:16:22.231Z,102040.23
2017-12-02T07:18:49.970Z,102044.20
2017-12-02T07:21:17.615Z,102049.55
2017-12-02T07:23:45.318Z,102051.61
2017-12-02T07:26:12.976Z,102051.55
2017-12-02T07:28:40.675Z,102058.33
2017-12-02T07:31:08.340Z,102056.85
2017-12-02T07:33:36.047Z,102062.64
2017-12-02T07:36:03.785Z,102060.18
2017-12-02T07:38:31.482Z,102071.52
2017-12-02T07:40:59.138Z,102077.66
2017-12-02T07:43:26.838Z,102082.09
2017-12-02T07:45:54.500Z,102085.56
2017-12-02T07:48:22.278Z,102079.84
2017-12-02T07:50:49.950Z,102090.47
2017-12-02T07:53:17.651Z,102087.59
2017-12-02T07:55:45.334Z,102088.41
2017-12-02T07:58:13.042Z,102084.28
2017-12-02T08:00:40.790Z,102086.05
2017-12-02T08:03:08.511Z,102093.52
2017-12-02T08:05:36.219Z,102092.75
2017-12-02T08:08:03.910Z,102093.31
2017-12-02T08:10:31.839Z,102101.29
2017-12-02T08:12:59.531Z,102096.19
2017-12-02T08:15:27.282Z,102102.14
2017-12-02T08:17:54.986Z,102103.30
2017-12-02T08:20:22.658Z,102105.25
2017-12-02T08:22:50.387Z,102098.56
2017-12-02T08:25:18.043Z,102095.33
2017-12-02T08:27:45.742Z,102095.08
2017-12-02T08:30:13.494Z,102096.91
2017-12-02T08:32:41.182Z,102094.77
2017-12-02T08:35:08.855Z,102094.33
2017-12-02T08:37:36.614Z,102089.62
2017-12-02T08:40:04.287Z,102087.53
2017-12-02T08:42:31.997Z,102093.16
2017-12-02T08:44:59.666Z,102091.00
2017-12-02T08:47:27.343Z,102094.20
2017-12-02T08:49:55.085Z,102095.70
2017-12-02T08:52:22.810Z,102097.61
2017-12-02T08:54:50.509Z,102097.45
2017-12-02T08:57:18.179Z,102105.45
2017-12-02T08:59:45.987Z,102103.30
2017-12-02T09:02:13.647Z,102101.49
2017-12-02T09:04:41.397Z,102097.89
2017-12-02T09:07:09.073Z,102097.42
2017-12-02T09:09:36.791Z,102099.20
2017-12-02T09:12:04.479Z,102103.58
2017-12-02T09:14:32.166Z,102108.26
2017-12-02T09:16:59.932Z,102114.39
2017-12-02T09:19:27.603Z,102123.12
2017-12-02T09:21:55.332Z,102131.89
2017-12-02T09:24:23.007Z,102139.26
2017-12-02T09:26:50.702Z,102148.08
2017-12-02T09:29:18.366Z,102150.53
2017-12-02T09:31:46.070Z,102148.80
2017-12-02T09:34:13.751Z,102155.16
2017-12-02T09:36:41.467Z,102157.44
2017-12-02T09:39:09.127Z,102154.05
2017-12-02T09:41:36.882Z,102167.59
2017-12-02T09:44:04.538Z,102173.77
2017-12-02T09:46:32.243Z,102179.28
2017-12-02T09:48:59.910Z,102170.12
2017-12-02T09:51:27.645Z,102179.13
2017-12-02T09:53:55.334Z,102184.50
2017-12-02T09:56:23.053Z,102185.48
2017-12-02T09:58:50.730Z,102185.99
2017-12-02T10:01:18.478Z,102192.98
2017-12-02T10:03:46.140Z,102189.52
2017-12-02T10:06:13.877Z,102181.37
2017-12-02T10:08:41.579Z,102180.56
2017-12-02T10:11:09.283Z,102181.73
2017-12-02T10:13:36.956Z,102182.63
2017-12-02T10:16:04.661Z,102178.91
2017-12-02T10:18:32.325Z,102180.29
2017-12-02T10:21:00.046Z,102179.69
2017-12-02T10:23:27.809Z,102183.44
2017-12-02T10:25:55.505Z,102179.69
2017-12-02T10:28:23.178Z,102183.16
2017-12-02T10:30:50.883Z,102172.59
2017-12-02T10:33:18.543Z,102173.00
2017-12-02T10:35:46.239Z,102176.70
2017-12-02T10:38:14.002Z,102175.66
2017-12-02T10:40:41.683Z,102176.63
2017-12-02T10:43:09.402Z,102177.03
2017-12-02T10:45:37.077Z,102177.36
2017-12-02T10:48:04.791Z,102185.45
2017-12-02T10:50:32.467Z,102185.97
2017-12-02T10:53:00.174Z,102185.39
2017-12-02T10:55:27.840Z,102196.20
2017-12-02T10:57:55.545Z,102196.36
2017-12-02T11:00:23.226Z,102191.23
2017-12-02T11:02:50.983Z,102187.81
2017-12-02T11:05:18.679Z,102185.16
2017-12-02T11:07:46.382Z,102185.08
2017-12-02T11:10:14.078Z,102195.45
2017-12-02T11:12:41.837Z,102194.83
2017-12-02T11:15:09.509Z,102189.09
2017-12-02T11:17:37.222Z,102181.77
2017-12-02T11:20:04.907Z,102180.70
2017-12-02T11:22:32.627Z,102190.60
2017-12-02T11:25:01.179Z,102177.48
2017-12-02T11:27:28.901Z,102174.19
2017-12-02T11:29:56.570Z,102173.36
2017-12-02T11:32:24.284Z,102173.55
2017-12-02T11:34:51.967Z,102162.31
2017-12-02T11:37:19.632Z,102163.45
2017-12-02T11:39:47.307Z,102165.26
2017-12-02T11:42:14.993Z,102163.15
2017-12-02T11:44:42.708Z,102167.06
2017-12-02T11:47:10.386Z,102174.80
2017-12-02T11:49:38.110Z,102172.37
2017-12-02T11:52:05.774Z,102173.27
2017-12-02T11:54:33.510Z,102168.06
2017-12-02T11:57:01.186Z,102169.30
2017-12-02T11:59:28.926Z,102166.94
2017-12-02T12:01:56.577Z,102169.98
2017-12-02T12:04:24.282Z,102165.33
2017-12-02T12:06:51.998Z,102168.03
2017-12-02T12:09:19.699Z,102157.05
2017-12-02T12:11:47.375Z,102157.66
2017-12-02T12:14:15.090Z,102151.56
2017-12-02T12:16:42.783Z,102149.82
2017-12-02T12:19:10.496Z,102151.20
2017-12-02T12:21:38.175Z,102151.12
2017-12-02T12:24:05.902Z,102145.11
2017-12-02T12:26:33.598Z,102147.77
2017-12-02T12:29:01.310Z,102147.93
2017-12-02T12:31:29.008Z,102142.46
2017-12-02T12:33:56.744Z,102136.16
2017-12-02T12:36:24.422Z,102142.09
2017-12-02T12:38:52.135Z,102136.91
2017-12-02T12:41:19.846Z,102129.06
2017-12-02T12:43:47.567Z,102140.00
2017-12-02T12:46:15.295Z,102146.38
2017-12-02T12:48:42.991Z,102142.23
2017-12-02T12:51:10.710Z,102139.47
2017-12-02T12:53:38.389Z,102124.80
2017-12-02T12:56:06.095Z,102119.89
2017-12-02T12:58:33.769Z,102122.10
2017-12-02T13:01:01.406Z,102122.08
2017-12-02T13:03:29.103Z,102119.14
2017-12-02T13:05:56.808Z,102123.70
2017-12-02T13:08:24.477Z,102122.32
2017-12-02T13:10:52.180Z,102118.95
2017-12-02T13:13:19.866Z,102113.39
2017-12-02T13:15:47.565Z,102120.77
2017-12-02T13:18:15.274Z,102115.08
2017-12-02T13:20:43.018Z,102114.91
2017-12-02T13:23:10.683Z,102119.53
2017-12-02T13:25:38.417Z,102114.84
2017-12-02T13:28:06.108Z,102110.30
2017-12-02T13:30:33.823Z,102111.19
2017-12-02T13:33:01.505Z,102105.48
2017-12-02T13:35:29.206Z,102101.88
2017-12-02T13:37:56.882Z,102104.61
2017-12-02T13:40:24.520Z,102108.08
2017-12-02T13:42:52.190Z,102106.30
2017-12-02T13:45:19.897Z,102116.46
2017-12-02T13:47:47.578Z,102113.73
2017-12-02T13:50:15.290Z,102105.83
2017-12-02T13:52:42.996Z,102121.05
2017-12-02T13:55:10.690Z,102121.77
2017-12-02T13:57:38.396Z,102127.55
2017-12-02T14:00:06.098Z,102130.12
2017-12-02T14:02:33.872Z,102135.19
2017-12-02T14:05:01.575Z,102128.49
2017-12-02T14:07:29.262Z,102131.06
2017-12-02T14:09:57.007Z,102139.24
2017-12-02T14:12:24.683Z,102137.40
2017-12-02T14:14:52.382Z,102139.42
2017-12-02T14:17:20.068Z,102144.86
2017-12-02T14:19:47.782Z,102138.32
2017-12-02T14:22:15.466Z,102140.39
2017-12-02T14:24:43.184Z,102137.78
2017-12-02T14:27:10.859Z,102139.42
2017-12-02T14:29:38.595Z,102140.87
2017-12-02T14:32:07.731Z,102136.39
2017-12-02T14:34:35.540Z,102136.18
2017-12-02T14:37:03.222Z,102131.16
2017-12-02T14:39:30.936Z,102138.11
2017-12-02T14:41:58.632Z,102145.34
2017-12-02T14:44:26.436Z,102137.95
2017-12-02T14:46:54.145Z,102149.77
2017-12-02T14:49:21.783Z,102154.25
2017-12-02T14:51:49.382Z,102154.36
2017-12-02T14:54:17.090Z,102151.78
2017-12-02T14:56:44.868Z,102162.73
2017-12-02T14:59:12.570Z,102152.07
2017-12-02T15:01:40.186Z,102150.88
2017-12-02T15:04:07.904Z,102145.56
2017-12-02T15:06:35.658Z,102147.64
2017-12-02T15:09:03.373Z,102150.39
2017-12-02T15:11:31.058Z,102153.61
2017-12-02T15:13:58.673Z,102152.70
2017-12-02T15:16:26.353Z,102151.47
2017-12-02T15:18:54.079Z,102147.35
2017-12-02T15:21:21.706Z,102148.70
2017-12-02T15:23:49.491Z,102144.64
2017-12-02T15:26:17.186Z,102153.69
2017-12-02T15:28:45.010Z,102151.34
2017-12-02T15:31:12.692Z,102150.68
2017-12-02T15:33:40.439Z,102152.64
2017-12-02T15:36:08.136Z,102156.25
2017-12-02T15:38:35.883Z,102161.19
2017-12-02T15:41:03.566Z,102153.50
2017-12-02T15:43:31.283Z,102157.80
2017-12-02T15:45:58.950Z,102159.98
2017-12-02T15:48:26.666Z,102162.11
2017-12-02T15:50:54.493Z,102163.08
2017-12-02T15:53:22.171Z,102165.63
2017-12-02T15:55:49.815Z,102171.97
2017-12-02T15:58:17.505Z,102173.77
2017-12-02T16:00:45.331Z,102175.69
2017-12-02T16:03:13.043Z,102176.85
2017-12-02T16:05:40.825Z,102173.80
2017-12-02T16:08:08.547Z,102169.69
2017-12-02T16:10:36.279Z,102171.08
2017-12-02T16:13:03.959Z,102169.50
2017-12-02T16:15:31.737Z,102159.45
2017-12-02T16:17:59.426Z,102162.33
2017-12-02T16:20:27.176Z,102165.52
2017-12-02T16:22:54.860Z,102170.16
2017-12-02T16:25:22.579Z,102170.42
2017-12-02T16:27:50.308Z,102166.38
2017-12-02T16:30:18.075Z,102159.02
2017-12-02T16:32:45.765Z,102168.03
2017-12-02T16:35:13.508Z,102172.54
2017-12-02T16:37:41.256Z,102174.88
2017-12-02T16:40:08.998Z,102172.36
2017-12-02T16:42:36.745Z,102182.05
2017-12-02T16:45:04.445Z,102180.88
2017-12-02T16:47:32.131Z,102181.59
2017-12-02T16:49:59.901Z,102186.58
2017-12-02T16:52:27.607Z,102189.16
2017-12-02T16:54:55.357Z,102189.56
2017-12-02T16:57:23.059Z,102188.77
2017-12-02T16:59:50.759Z,102187.02
2017-12-02T17:02:18.436Z,102186.69
2017-12-02T17:04:46.223Z,102186.75
2017-12-02T17:07:13.948Z,102189.85
2017-12-02T17:09:41.680Z,102192.34
2017-12-02T17:12:09.502Z,102189.97
2017-12-02T17:14:37.296Z,102189.23
2017-12-02T17:17:05.070Z,102194.48
2017-12-02T17:19:32.820Z,102198.45
2017-12-02T17:22:00.486Z,102203.72
2017-12-02T17:24:28.228Z,102194.11
2017-12-02T17:26:55.934Z,102197.43
2017-12-02T17:29:23.638Z,102195.38
2017-12-02T17:31:51.330Z,102199.59
2017-12-02T17:34:19.054Z,102195.14
2017-12-02T17:36:46.743Z,102201.15
2017-12-02T17:39:14.455Z,102199.64
2017-12-02T17:41:42.138Z,102197.98
2017-12-02T17:44:09.857Z,102202.67
2017-12-02T17:46:37.530Z,102202.84
2017-12-02T17:49:05.331Z,102198.56
2017-12-02T17:51:33.020Z,102201.41
2017-12-02T17:54:00.756Z,102194.91
2017-12-02T17:56:28.492Z,102193.34
2017-12-02T17:58:56.236Z,102190.30
2017-12-02T18:01:23.962Z,102191.38
2017-12-02T18:03:51.697Z,102194.00
2017-12-02T18:06:19.367Z,102190.42
2017-12-02T18:08:47.063Z,102190.62
2017-12-02T18:11:14.806Z,102189.31
2017-12-02T18:13:42.531Z,102186.75
2017-12-02T18:16:10.311Z,102193.03
2017-12-02T18:18:38.065Z,102195.60
2017-12-02T18:21:05.802Z,102194.03
2017-12-02T18:23:33.591Z,102196.83
2017-12-02T18:26:01.287Z,102197.89
2017-12-02T18:28:29.083Z,102190.38
2017-12-02T18:30:56.847Z,102194.44
2017-12-02T18:33:24.636Z,102207.26
2017-12-02T18:35:52.449Z,102199.63
2017-12-02T18:38:20.219Z,102207.41
2017-12-02T18:40:47.949Z,102207.14
2017-12-02T18:43:15.773Z,102203.66
2017-12-02T18:45:43.433Z,102213.15
2017-12-02T18:48:11.150Z,102213.95
2017-12-02T18:50:38.776Z,102209.64
2017-12-02T18:53:06.588Z,102206.41
2017-12-02T18:55:34.274Z,102216.34
2017-12-02T18:58:01.990Z,102214.59
2017-12-02T19:00:30.522Z,102213.53
2017-12-02T19:02:58.236Z,102216.31
2017-12-02T19:05:25.926Z,102219.30
2017-12-02T19:07:53.657Z,102221.01
2017-12-02T19:10:21.338Z,102217.29
2017-12-02T19:12:49.042Z,102212.16
2017-12-02T19:15:16.639Z,102215.22
2017-12-02T19:17:44.356Z,102214.44
2017-12-02T19:20:12.117Z,102214.97
2017-12-02T19:22:39.914Z,102214.40
2017-12-02T19:25:07.618Z,102211.11
2017-12-02T19:27:35.335Z,102211.34
2017-12-02T19:30:03.103Z,102215.67
2017-12-02T19:32:30.831Z,102212.06
2017-12-02T19:34:58.502Z,102208.87
2017-12-02T19:37:26.209Z,102213.31
2017-12-02T19:39:53.892Z,102205.55
2017-12-02T19:42:21.669Z,102203.64
2017-12-02T19:44:49.364Z,102205.55
2017-12-02T19:47:17.147Z,102203.49
2017-12-02T19:49:44.926Z,102197.72
2017-12-02T19:52:12.713Z,102190.44
2017-12-02T19:54:40.473Z,102186.67
2017-12-02T19:57:08.191Z,102188.60
2017-12-02T19:59:35.868Z,102192.98
2017-12-02T20:02:03.586Z,102197.69
2017-12-02T20:04:31.276Z,102196.03
2017-12-02T20:06:59.141Z,102199.19
2017-12-02T20:09:26.840Z,102188.77
2017-12-02T20:11:54.538Z,102188.42
2017-12-02T20:14:22.379Z,102193.00
2017-12-02T20:16:50.130Z,102195.31
2017-12-02T20:19:17.867Z,102192.51
2017-12-02T20:21:45.574Z,102193.16
2017-12-02T20:24:13.269Z,102194.56
2017-12-02T20:26:41.064Z,102196.09
2017-12-02T20:29:08.786Z,102199.13
2017-12-02T20:31:36.462Z,102199.21
2017-12-02T20:34:04.271Z,102199.23
2017-12-02T20:36:32.049Z,102191.72
2017-12-02T20:38:59.860Z,102194.52
2017-12-02T20:41:27.590Z,102200.91
2017-12-02T20:43:55.399Z,102208.84
2017-12-02T20:46:23.076Z,102199.88
2017-12-02T20:48:50.812Z,102198.05
2017-12-02T20:51:18.504Z,102200.50
2017-12-02T20:53:46.262Z,102205.82
2017-12-02T20:56:14.092Z,102194.37
2017-12-02T20:58:41.823Z,102197.45
2017-12-02T21:01:09.486Z,102200.08
2017-12-02T21:03:37.259Z,102190.38
2017-12-02T21:06:05.011Z,102186.83
2017-12-02T21:08:32.754Z,102175.97
2017-12-02T21:11:00.442Z,102173.13
2017-12-02T21:13:28.154Z,102184.38
2017-12-02T21:15:55.920Z,102181.20
2017-12-02T21:18:23.720Z,102177.62
2017-12-02T21:20:51.392Z,102175.63
2017-12-02T21:23:19.164Z,102184.01
2017-12-02T21:25:46.853Z,102177.28
2017-12-02T21:28:14.566Z,102174.05
2017-12-02T21:30:42.271Z,102175.02
2017-12-02T21:33:10.006Z,102171.23
2017-12-02T21:35:37.774Z,102167.69
2017-12-02T21:38:05.532Z,102167.48
2017-12-02T21:40:33.144Z,102165.27
2017-12-02T21:43:00.855Z,102162.97
2017-12-02T21:45:28.613Z,102160.70
2017-12-02T21:47:56.348Z,102161.95
2017-12-02T21:50:24.022Z,102160.93
2017-12-02T21:52:51.791Z,102164.80
2017-12-02T21:55:19.474Z,102166.13
2017-12-02T21:57:49.031Z,102173.61
2017-12-02T22:00:16.754Z,102173.14
2017-12-02T22:02:44.954Z,102171.48
2017-12-02T22:05:12.629Z,102173.06
2017-12-02T22:07:40.413Z,102172.87
2017-12-02T22:10:08.086Z,102170.48
2017-12-02T22:12:35.829Z,102171.94
2017-12-02T22:15:03.522Z,102173.00
2017-12-02T22:17:31.285Z,102171.03
2017-12-02T22:19:59.033Z,102172.11
2017-12-02T22:22:26.745Z,102162.45
2017-12-02T22:24:54.462Z,102154.42
2017-12-02T22:27:23.654Z,102149.32
2017-12-02T22:29:51.414Z,102145.64
2017-12-02T22:32:19.093Z,102145.87
2017-12-02T22:34:46.794Z,102146.34
2017-12-02T22:37:15.358Z,102138.63
2017-12-02T22:39:43.109Z,102135.59
2017-12-02T22:42:10.801Z,102133.45
2017-12-02T22:44:38.535Z,102132.98
2017-12-02T22:47:06.191Z,102136.83
2017-12-02T22:49:33.936Z,102135.03
2017-12-02T22:52:01.622Z,102138.42
2017-12-02T22:54:29.314Z,102136.09
2017-12-02T22:56:57.015Z,102137.69
2017-12-02T22:59:24.739Z,102144.00
2017-12-02T23:01:52.423Z,102139.69
2017-12-02T23:04:20.547Z,102143.89
2017-12-02T23:06:48.246Z,102149.84
2017-12-02T23:09:15.959Z,102150.73
2017-12-02T23:11:43.622Z,102150.64
2017-12-02T23:14:11.334Z,102154.36
2017-12-02T23:16:39.027Z,102148.56
2017-12-02T23:19:06.758Z,102142.66
2017-12-02T23:21:34.437Z,102141.41
2017-12-02T23:24:02.192Z,102133.06
2017-12-02T23:26:29.870Z,102132.22
2017-12-02T23:28:57.530Z,102133.48
2017-12-02T23:31:25.230Z,102130.61
2017-12-02T23:33:52.972Z,102123.85
2017-12-02T23:36:20.694Z,102123.17
2017-12-02T23:38:48.362Z,102116.17
2017-12-02T23:41:16.135Z,102118.39
2017-12-02T23:43:43.823Z,102110.64
2017-12-02T23:46:11.554Z,102118.41
2017-12-02T23:48:39.230Z,102115.02
2017-12-02T23:51:06.950Z,102115.19
2017-12-02T23:53:34.650Z,102114.04
2017-12-02T23:56:02.347Z,102107.17
2017-12-02T23:58:30.067Z,102106.02
